sensor_id;sensor_type;location;lat;lon;timestamp;P1;durP1;ratioP1;P2;durP2;ratioP2
69912;SDS011;57198;52.082;5.108;2022-08-30T00:02:14;5.25;;;2.28;;
69912;SDS011;57198;52.082;5.108;2022-08-30T00:04:41;4.05;;;2.80;;
69912;SDS011;57198;52.082;5.108;2022-08-30T00:07:09;5.10;;;2.35;;
69912;SDS011;57198;52.082;5.108;2022-08-30T00:09:36;5.68;;;2.17;;
69912;SDS011;57198;52.082;5.108;2022-08-30T00:12:04;4.23;;;2.27;;
69912;SDS011;57198;52.082;5.108;2022-08-30T00:14:31;8.52;;;2.58;;
69912;SDS011;57198;52.082;5.108;2022-08-30T00:16:58;7.93;;;2.97;;
69912;SDS011;57198;52.082;5.108;2022-08-30T00:19:26;4.97;;;2.47;;
69912;SDS011;57198;52.082;5.108;2022-08-30T00:21:53;6.28;;;2.67;;
69912;SDS011;57198;52.082;5.108;2022-08-30T00:24:20;5.90;;;1.90;;
69912;SDS011;57198;52.082;5.108;2022-08-30T00:26:47;5.22;;;2.35;;
69912;SDS011;57198;52.082;5.108;2022-08-30T00:29:15;6.72;;;2.20;;
69912;SDS011;57198;52.082;5.108;2022-08-30T00:31:42;3.80;;;2.60;;
69912;SDS011;57198;52.082;5.108;2022-08-30T00:34:09;4.53;;;2.88;;
69912;SDS011;57198;52.082;5.108;2022-08-30T00:36:37;5.50;;;2.50;;
69912;SDS011;57198;52.082;5.108;2022-08-30T00:39:04;4.68;;;2.40;;
69912;SDS011;57198;52.082;5.108;2022-08-30T00:41:31;6.47;;;2.70;;
69912;SDS011;57198;52.082;5.108;2022-08-30T00:43:59;3.58;;;2.40;;
69912;SDS011;57198;52.082;5.108;2022-08-30T00:46:27;2.88;;;2.45;;
69912;SDS011;57198;52.082;5.108;2022-08-30T00:48:55;5.17;;;2.57;;
69912;SDS011;57198;52.082;5.108;2022-08-30T00:51:23;6.00;;;2.67;;
69912;SDS011;57198;52.082;5.108;2022-08-30T00:53:52;4.18;;;2.58;;
69912;SDS011;57198;52.082;5.108;2022-08-30T00:56:23;3.30;;;2.13;;
69912;SDS011;57198;52.082;5.108;2022-08-30T00:58:51;4.10;;;2.17;;
69912;SDS011;57198;52.082;5.108;2022-08-30T01:01:19;5.27;;;2.50;;
69912;SDS011;57198;52.082;5.108;2022-08-30T01:03:47;4.72;;;3.00;;
69912;SDS011;57198;52.082;5.108;2022-08-30T01:06:15;3.70;;;2.47;;
69912;SDS011;57198;52.082;5.108;2022-08-30T01:08:43;5.22;;;2.80;;
69912;SDS011;57198;52.082;5.108;2022-08-30T01:11:11;3.15;;;2.33;;
69912;SDS011;57198;52.082;5.108;2022-08-30T01:13:39;3.87;;;2.50;;
69912;SDS011;57198;52.082;5.108;2022-08-30T01:16:07;3.90;;;2.67;;
69912;SDS011;57198;52.082;5.108;2022-08-30T01:18:35;2.85;;;2.60;;
69912;SDS011;57198;52.082;5.108;2022-08-30T01:23:37;4.03;;;2.45;;
69912;SDS011;57198;52.082;5.108;2022-08-30T01:26:06;7.43;;;3.30;;
69912;SDS011;57198;52.082;5.108;2022-08-30T01:28:33;4.22;;;2.88;;
69912;SDS011;57198;52.082;5.108;2022-08-30T01:31:01;5.38;;;2.80;;
69912;SDS011;57198;52.082;5.108;2022-08-30T01:33:29;4.80;;;3.10;;
69912;SDS011;57198;52.082;5.108;2022-08-30T01:36:01;4.40;;;2.97;;
69912;SDS011;57198;52.082;5.108;2022-08-30T01:38:32;4.43;;;3.40;;
69912;SDS011;57198;52.082;5.108;2022-08-30T01:43:36;4.65;;;2.60;;
69912;SDS011;57198;52.082;5.108;2022-08-30T01:46:04;6.32;;;3.72;;
69912;SDS011;57198;52.082;5.108;2022-08-30T01:48:31;3.80;;;2.97;;
69912;SDS011;57198;52.082;5.108;2022-08-30T01:51:00;6.63;;;4.00;;
69912;SDS011;57198;52.082;5.108;2022-08-30T01:53:28;5.35;;;3.65;;
69912;SDS011;57198;52.082;5.108;2022-08-30T01:55:55;7.88;;;3.35;;
69912;SDS011;57198;52.082;5.108;2022-08-30T01:58:23;5.03;;;3.35;;
69912;SDS011;57198;52.082;5.108;2022-08-30T02:00:50;6.13;;;4.03;;
69912;SDS011;57198;52.082;5.108;2022-08-30T02:03:18;6.53;;;3.20;;
69912;SDS011;57198;52.082;5.108;2022-08-30T02:05:45;4.93;;;2.72;;
69912;SDS011;57198;52.082;5.108;2022-08-30T02:08:13;4.25;;;3.85;;
69912;SDS011;57198;52.082;5.108;2022-08-30T02:10:41;7.25;;;3.72;;
69912;SDS011;57198;52.082;5.108;2022-08-30T02:13:08;6.35;;;3.97;;
69912;SDS011;57198;52.082;5.108;2022-08-30T02:15:36;4.70;;;3.70;;
69912;SDS011;57198;52.082;5.108;2022-08-30T02:18:07;5.55;;;3.45;;
69912;SDS011;57198;52.082;5.108;2022-08-30T02:20:36;4.65;;;3.13;;
69912;SDS011;57198;52.082;5.108;2022-08-30T02:23:04;5.22;;;3.63;;
69912;SDS011;57198;52.082;5.108;2022-08-30T02:25:31;5.30;;;3.30;;
69912;SDS011;57198;52.082;5.108;2022-08-30T02:27:59;4.20;;;3.80;;
69912;SDS011;57198;52.082;5.108;2022-08-30T02:30:26;5.85;;;3.70;;
69912;SDS011;57198;52.082;5.108;2022-08-30T02:32:54;5.20;;;4.10;;
69912;SDS011;57198;52.082;5.108;2022-08-30T02:35:21;8.70;;;4.47;;
69912;SDS011;57198;52.082;5.108;2022-08-30T02:37:49;4.78;;;4.10;;
69912;SDS011;57198;52.082;5.108;2022-08-30T02:40:16;5.87;;;4.57;;
69912;SDS011;57198;52.082;5.108;2022-08-30T02:42:43;5.90;;;4.72;;
69912;SDS011;57198;52.082;5.108;2022-08-30T02:45:10;4.43;;;4.03;;
69912;SDS011;57198;52.082;5.108;2022-08-30T02:47:38;4.90;;;4.50;;
69912;SDS011;57198;52.082;5.108;2022-08-30T02:50:12;4.20;;;3.80;;
69912;SDS011;57198;52.082;5.108;2022-08-30T02:52:39;4.50;;;4.10;;
69912;SDS011;57198;52.082;5.108;2022-08-30T02:55:08;6.57;;;4.32;;
69912;SDS011;57198;52.082;5.108;2022-08-30T02:57:35;5.10;;;4.60;;
69912;SDS011;57198;52.082;5.108;2022-08-30T03:00:06;6.43;;;4.78;;
69912;SDS011;57198;52.082;5.108;2022-08-30T03:02:34;5.00;;;4.50;;
69912;SDS011;57198;52.082;5.108;2022-08-30T03:05:01;6.20;;;4.83;;
69912;SDS011;57198;52.082;5.108;2022-08-30T03:07:29;6.30;;;5.70;;
69912;SDS011;57198;52.082;5.108;2022-08-30T03:09:56;5.35;;;4.95;;
69912;SDS011;57198;52.082;5.108;2022-08-30T03:12:24;5.97;;;5.18;;
69912;SDS011;57198;52.082;5.108;2022-08-30T03:14:52;8.60;;;5.70;;
69912;SDS011;57198;52.082;5.108;2022-08-30T03:17:19;8.40;;;4.87;;
69912;SDS011;57198;52.082;5.108;2022-08-30T03:19:47;9.77;;;5.53;;
69912;SDS011;57198;52.082;5.108;2022-08-30T03:22:14;5.78;;;5.15;;
69912;SDS011;57198;52.082;5.108;2022-08-30T03:24:42;5.93;;;5.43;;
69912;SDS011;57198;52.082;5.108;2022-08-30T03:27:11;5.85;;;5.35;;
69912;SDS011;57198;52.082;5.108;2022-08-30T03:29:38;7.13;;;5.53;;
69912;SDS011;57198;52.082;5.108;2022-08-30T03:32:06;7.05;;;5.30;;
69912;SDS011;57198;52.082;5.108;2022-08-30T03:34:33;7.18;;;5.22;;
69912;SDS011;57198;52.082;5.108;2022-08-30T03:37:01;6.63;;;4.93;;
69912;SDS011;57198;52.082;5.108;2022-08-30T03:39:28;10.18;;;5.63;;
69912;SDS011;57198;52.082;5.108;2022-08-30T03:41:55;6.67;;;6.00;;
69912;SDS011;57198;52.082;5.108;2022-08-30T03:44:24;7.03;;;5.57;;
69912;SDS011;57198;52.082;5.108;2022-08-30T03:46:51;7.63;;;5.40;;
69912;SDS011;57198;52.082;5.108;2022-08-30T03:49:19;5.05;;;4.55;;
69912;SDS011;57198;52.082;5.108;2022-08-30T03:51:46;6.95;;;5.20;;
69912;SDS011;57198;52.082;5.108;2022-08-30T03:54:14;6.00;;;4.93;;
69912;SDS011;57198;52.082;5.108;2022-08-30T03:56:41;6.55;;;5.95;;
69912;SDS011;57198;52.082;5.108;2022-08-30T03:59:08;6.50;;;4.72;;
69912;SDS011;57198;52.082;5.108;2022-08-30T04:01:35;6.40;;;5.25;;
69912;SDS011;57198;52.082;5.108;2022-08-30T04:04:03;5.43;;;4.25;;
69912;SDS011;57198;52.082;5.108;2022-08-30T04:06:30;5.33;;;4.93;;
69912;SDS011;57198;52.082;5.108;2022-08-30T04:08:58;5.60;;;4.97;;
69912;SDS011;57198;52.082;5.108;2022-08-30T04:11:26;5.20;;;4.70;;
69912;SDS011;57198;52.082;5.108;2022-08-30T04:13:53;5.55;;;4.88;;
69912;SDS011;57198;52.082;5.108;2022-08-30T04:16:22;6.40;;;4.95;;
69912;SDS011;57198;52.082;5.108;2022-08-30T04:18:49;4.50;;;4.10;;
69912;SDS011;57198;52.082;5.108;2022-08-30T04:21:17;5.43;;;4.93;;
69912;SDS011;57198;52.082;5.108;2022-08-30T04:23:44;5.57;;;4.97;;
69912;SDS011;57198;52.082;5.108;2022-08-30T04:26:12;5.35;;;3.78;;
69912;SDS011;57198;52.082;5.108;2022-08-30T04:28:40;4.90;;;4.40;;
69912;SDS011;57198;52.082;5.108;2022-08-30T04:31:11;5.10;;;4.60;;
69912;SDS011;57198;52.082;5.108;2022-08-30T04:33:40;5.82;;;4.60;;
69912;SDS011;57198;52.082;5.108;2022-08-30T04:36:09;6.20;;;5.60;;
69912;SDS011;57198;52.082;5.108;2022-08-30T04:38:36;5.07;;;4.55;;
69912;SDS011;57198;52.082;5.108;2022-08-30T04:41:11;6.10;;;5.60;;
69912;SDS011;57198;52.082;5.108;2022-08-30T04:43:45;6.07;;;5.50;;
69912;SDS011;57198;52.082;5.108;2022-08-30T04:46:12;6.45;;;4.50;;
69912;SDS011;57198;52.082;5.108;2022-08-30T04:48:40;5.63;;;5.10;;
69912;SDS011;57198;52.082;5.108;2022-08-30T04:51:08;6.50;;;5.03;;
69912;SDS011;57198;52.082;5.108;2022-08-30T04:53:36;4.78;;;4.07;;
69912;SDS011;57198;52.082;5.108;2022-08-30T04:56:07;6.57;;;4.77;;
69912;SDS011;57198;52.082;5.108;2022-08-30T04:58:35;4.95;;;4.50;;
69912;SDS011;57198;52.082;5.108;2022-08-30T05:01:02;5.47;;;4.40;;
69912;SDS011;57198;52.082;5.108;2022-08-30T05:03:30;8.13;;;4.85;;
69912;SDS011;57198;52.082;5.108;2022-08-30T05:05:57;5.97;;;5.13;;
69912;SDS011;57198;52.082;5.108;2022-08-30T05:08:25;5.93;;;5.33;;
69912;SDS011;57198;52.082;5.108;2022-08-30T05:10:52;9.70;;;5.10;;
69912;SDS011;57198;52.082;5.108;2022-08-30T05:13:20;7.40;;;4.55;;
69912;SDS011;57198;52.082;5.108;2022-08-30T05:16:01;6.50;;;5.53;;
69912;SDS011;57198;52.082;5.108;2022-08-30T05:18:29;6.93;;;5.05;;
69912;SDS011;57198;52.082;5.108;2022-08-30T05:21:04;5.37;;;4.87;;
69912;SDS011;57198;52.082;5.108;2022-08-30T05:23:32;6.53;;;5.00;;
69912;SDS011;57198;52.082;5.108;2022-08-30T05:26:02;6.00;;;4.85;;
69912;SDS011;57198;52.082;5.108;2022-08-30T05:28:30;7.03;;;5.15;;
69912;SDS011;57198;52.082;5.108;2022-08-30T05:30:58;4.85;;;4.15;;
69912;SDS011;57198;52.082;5.108;2022-08-30T05:33:26;7.30;;;5.33;;
69912;SDS011;57198;52.082;5.108;2022-08-30T05:35:53;5.60;;;4.82;;
69912;SDS011;57198;52.082;5.108;2022-08-30T05:38:21;6.95;;;5.30;;
69912;SDS011;57198;52.082;5.108;2022-08-30T05:40:48;6.40;;;5.15;;
69912;SDS011;57198;52.082;5.108;2022-08-30T05:43:17;11.82;;;4.68;;
69912;SDS011;57198;52.082;5.108;2022-08-30T05:45:44;9.10;;;4.90;;
69912;SDS011;57198;52.082;5.108;2022-08-30T05:48:11;7.47;;;4.90;;
69912;SDS011;57198;52.082;5.108;2022-08-30T05:50:39;7.18;;;4.70;;
69912;SDS011;57198;52.082;5.108;2022-08-30T05:53:06;5.15;;;4.22;;
69912;SDS011;57198;52.082;5.108;2022-08-30T05:55:33;7.75;;;4.57;;
69912;SDS011;57198;52.082;5.108;2022-08-30T05:58:01;5.40;;;4.73;;
69912;SDS011;57198;52.082;5.108;2022-08-30T06:00:28;6.50;;;4.88;;
69912;SDS011;57198;52.082;5.108;2022-08-30T06:02:56;7.35;;;4.68;;
69912;SDS011;57198;52.082;5.108;2022-08-30T06:05:24;4.47;;;4.07;;
69912;SDS011;57198;52.082;5.108;2022-08-30T06:07:51;5.15;;;3.60;;
69912;SDS011;57198;52.082;5.108;2022-08-30T06:10:18;4.47;;;4.07;;
69912;SDS011;57198;52.082;5.108;2022-08-30T06:12:46;4.57;;;3.80;;
69912;SDS011;57198;52.082;5.108;2022-08-30T06:15:13;6.97;;;4.28;;
69912;SDS011;57198;52.082;5.108;2022-08-30T06:17:40;5.55;;;3.80;;
69912;SDS011;57198;52.082;5.108;2022-08-30T06:20:08;5.53;;;3.65;;
69912;SDS011;57198;52.082;5.108;2022-08-30T06:22:35;3.83;;;3.50;;
69912;SDS011;57198;52.082;5.108;2022-08-30T06:25:04;8.93;;;4.20;;
69912;SDS011;57198;52.082;5.108;2022-08-30T06:27:32;7.18;;;3.53;;
69912;SDS011;57198;52.082;5.108;2022-08-30T06:29:59;4.60;;;3.65;;
69912;SDS011;57198;52.082;5.108;2022-08-30T06:32:26;8.25;;;4.20;;
69912;SDS011;57198;52.082;5.108;2022-08-30T06:34:54;10.20;;;3.60;;
69912;SDS011;57198;52.082;5.108;2022-08-30T06:37:21;10.82;;;3.80;;
69912;SDS011;57198;52.082;5.108;2022-08-30T06:39:55;8.10;;;2.75;;
69912;SDS011;57198;52.082;5.108;2022-08-30T06:42:23;6.05;;;3.30;;
69912;SDS011;57198;52.082;5.108;2022-08-30T06:45:02;3.58;;;2.70;;
69912;SDS011;57198;52.082;5.108;2022-08-30T06:47:36;6.90;;;2.77;;
69912;SDS011;57198;52.082;5.108;2022-08-30T06:50:04;5.05;;;3.30;;
69912;SDS011;57198;52.082;5.108;2022-08-30T06:52:31;9.80;;;3.10;;
69912;SDS011;57198;52.082;5.108;2022-08-30T06:54:59;7.30;;;2.90;;
69912;SDS011;57198;52.082;5.108;2022-08-30T06:57:27;5.85;;;3.17;;
69912;SDS011;57198;52.082;5.108;2022-08-30T06:59:55;5.43;;;3.23;;
69912;SDS011;57198;52.082;5.108;2022-08-30T07:02:23;4.18;;;3.05;;
69912;SDS011;57198;52.082;5.108;2022-08-30T07:04:51;4.10;;;2.30;;
69912;SDS011;57198;52.082;5.108;2022-08-30T07:07:18;6.68;;;2.58;;
69912;SDS011;57198;52.082;5.108;2022-08-30T07:09:46;9.38;;;2.55;;
69912;SDS011;57198;52.082;5.108;2022-08-30T07:12:13;3.17;;;2.63;;
69912;SDS011;57198;52.082;5.108;2022-08-30T07:14:41;2.33;;;2.13;;
69912;SDS011;57198;52.082;5.108;2022-08-30T07:17:08;4.50;;;2.28;;
69912;SDS011;57198;52.082;5.108;2022-08-30T07:20:00;6.88;;;2.08;;
69912;SDS011;57198;52.082;5.108;2022-08-30T07:22:27;4.80;;;2.50;;
69912;SDS011;57198;52.082;5.108;2022-08-30T07:24:54;5.40;;;1.70;;
69912;SDS011;57198;52.082;5.108;2022-08-30T07:27:22;3.28;;;2.00;;
69912;SDS011;57198;52.082;5.108;2022-08-30T07:29:49;4.85;;;1.88;;
69912;SDS011;57198;52.082;5.108;2022-08-30T07:32:17;4.30;;;1.70;;
69912;SDS011;57198;52.082;5.108;2022-08-30T07:34:44;6.90;;;1.90;;
69912;SDS011;57198;52.082;5.108;2022-08-30T07:37:12;2.67;;;1.83;;
69912;SDS011;57198;52.082;5.108;2022-08-30T07:39:44;4.72;;;1.70;;
69912;SDS011;57198;52.082;5.108;2022-08-30T07:42:13;5.28;;;1.70;;
69912;SDS011;57198;52.082;5.108;2022-08-30T07:44:41;6.30;;;1.65;;
69912;SDS011;57198;52.082;5.108;2022-08-30T07:47:09;2.95;;;1.50;;
69912;SDS011;57198;52.082;5.108;2022-08-30T07:49:36;6.97;;;2.03;;
69912;SDS011;57198;52.082;5.108;2022-08-30T07:52:04;3.55;;;2.10;;
69912;SDS011;57198;52.082;5.108;2022-08-30T07:54:31;1.77;;;1.65;;
69912;SDS011;57198;52.082;5.108;2022-08-30T07:56:59;4.32;;;1.40;;
69912;SDS011;57198;52.082;5.108;2022-08-30T07:59:26;3.47;;;1.25;;
69912;SDS011;57198;52.082;5.108;2022-08-30T08:01:59;3.17;;;1.43;;
69912;SDS011;57198;52.082;5.108;2022-08-30T08:04:27;2.92;;;0.95;;
69912;SDS011;57198;52.082;5.108;2022-08-30T08:06:54;1.85;;;1.40;;
69912;SDS011;57198;52.082;5.108;2022-08-30T08:09:21;4.13;;;1.40;;
69912;SDS011;57198;52.082;5.108;2022-08-30T08:11:49;4.55;;;1.20;;
69912;SDS011;57198;52.082;5.108;2022-08-30T08:14:16;3.17;;;1.40;;
69912;SDS011;57198;52.082;5.108;2022-08-30T08:16:44;2.33;;;1.17;;
69912;SDS011;57198;52.082;5.108;2022-08-30T08:19:12;4.63;;;1.27;;
69912;SDS011;57198;52.082;5.108;2022-08-30T08:21:39;4.35;;;1.70;;
69912;SDS011;57198;52.082;5.108;2022-08-30T08:24:07;2.83;;;1.30;;
69912;SDS011;57198;52.082;5.108;2022-08-30T08:26:34;3.83;;;1.50;;
69912;SDS011;57198;52.082;5.108;2022-08-30T08:29:04;2.10;;;1.38;;
69912;SDS011;57198;52.082;5.108;2022-08-30T08:31:32;4.05;;;1.02;;
69912;SDS011;57198;52.082;5.108;2022-08-30T08:34:00;2.40;;;1.42;;
69912;SDS011;57198;52.082;5.108;2022-08-30T08:36:29;2.15;;;1.00;;
69912;SDS011;57198;52.082;5.108;2022-08-30T08:38:56;5.00;;;1.07;;
69912;SDS011;57198;52.082;5.108;2022-08-30T08:43:51;1.80;;;1.30;;
69912;SDS011;57198;52.082;5.108;2022-08-30T08:48:51;3.17;;;1.10;;
69912;SDS011;57198;52.082;5.108;2022-08-30T08:51:30;1.67;;;0.90;;
69912;SDS011;57198;52.082;5.108;2022-08-30T08:57:01;1.58;;;1.00;;
69912;SDS011;57198;52.082;5.108;2022-08-30T08:59:29;1.42;;;1.00;;
69912;SDS011;57198;52.082;5.108;2022-08-30T09:01:57;1.45;;;1.08;;
69912;SDS011;57198;52.082;5.108;2022-08-30T09:04:29;2.03;;;0.97;;
69912;SDS011;57198;52.082;5.108;2022-08-30T09:06:57;1.83;;;1.00;;
69912;SDS011;57198;52.082;5.108;2022-08-30T09:09:26;5.65;;;1.45;;
69912;SDS011;57198;52.082;5.108;2022-08-30T09:11:55;1.98;;;1.10;;
69912;SDS011;57198;52.082;5.108;2022-08-30T09:15:08;4.00;;;0.95;;
69912;SDS011;57198;52.082;5.108;2022-08-30T09:17:14;2.03;;;0.90;;
69912;SDS011;57198;52.082;5.108;2022-08-30T09:19:55;3.28;;;1.05;;
69912;SDS011;57198;52.082;5.108;2022-08-30T09:22:32;4.38;;;1.15;;
69912;SDS011;57198;52.082;5.108;2022-08-30T09:25:01;3.30;;;1.20;;
69912;SDS011;57198;52.082;5.108;2022-08-30T09:27:39;2.22;;;1.27;;
69912;SDS011;57198;52.082;5.108;2022-08-30T09:32:49;2.92;;;1.10;;
69912;SDS011;57198;52.082;5.108;2022-08-30T09:37:54;0.95;;;0.90;;
69912;SDS011;57198;52.082;5.108;2022-08-30T09:40:30;3.30;;;1.10;;
69912;SDS011;57198;52.082;5.108;2022-08-30T09:43:03;3.27;;;0.90;;
69912;SDS011;57198;52.082;5.108;2022-08-30T09:45:32;1.45;;;1.10;;
69912;SDS011;57198;52.082;5.108;2022-08-30T09:50:48;2.15;;;0.90;;
69912;SDS011;57198;52.082;5.108;2022-08-30T09:53:22;7.50;;;1.30;;
69912;SDS011;57198;52.082;5.108;2022-08-30T09:55:56;3.30;;;1.40;;
69912;SDS011;57198;52.082;5.108;2022-08-30T09:58:29;8.95;;;1.70;;
69912;SDS011;57198;52.082;5.108;2022-08-30T10:01:13;1.50;;;1.00;;
69912;SDS011;57198;52.082;5.108;2022-08-30T10:06:23;7.20;;;1.23;;
69912;SDS011;57198;52.082;5.108;2022-08-30T10:09:05;1.50;;;1.20;;
69912;SDS011;57198;52.082;5.108;2022-08-30T10:11:55;2.45;;;1.08;;
69912;SDS011;57198;52.082;5.108;2022-08-30T10:17:06;2.15;;;0.90;;
69912;SDS011;57198;52.082;5.108;2022-08-30T10:22:13;2.47;;;1.00;;
69912;SDS011;57198;52.082;5.108;2022-08-30T10:24:48;3.08;;;1.33;;
69912;SDS011;57198;52.082;5.108;2022-08-30T10:27:18;6.38;;;1.10;;
69912;SDS011;57198;52.082;5.108;2022-08-30T10:30:07;3.05;;;0.98;;
69912;SDS011;57198;52.082;5.108;2022-08-30T10:35:15;3.17;;;0.83;;
69912;SDS011;57198;52.082;5.108;2022-08-30T10:37:47;4.30;;;0.80;;
69912;SDS011;57198;52.082;5.108;2022-08-30T10:40:26;9.18;;;1.02;;
69912;SDS011;57198;52.082;5.108;2022-08-30T10:43:19;3.35;;;0.85;;
69912;SDS011;57198;52.082;5.108;2022-08-30T10:45:48;3.10;;;1.27;;
69912;SDS011;57198;52.082;5.108;2022-08-30T10:48:22;6.77;;;1.07;;
69912;SDS011;57198;52.082;5.108;2022-08-30T10:50:51;2.05;;;1.23;;
69912;SDS011;57198;52.082;5.108;2022-08-30T10:53:24;3.17;;;0.80;;
69912;SDS011;57198;52.082;5.108;2022-08-30T10:55:59;1.67;;;1.10;;
69912;SDS011;57198;52.082;5.108;2022-08-30T10:58:28;3.33;;;1.20;;
69912;SDS011;57198;52.082;5.108;2022-08-30T11:03:56;2.85;;;1.00;;
69912;SDS011;57198;52.082;5.108;2022-08-30T11:11:58;4.35;;;0.95;;
69912;SDS011;57198;52.082;5.108;2022-08-30T11:14:28;4.00;;;1.00;;
69912;SDS011;57198;52.082;5.108;2022-08-30T11:16:55;5.68;;;1.10;;
69912;SDS011;57198;52.082;5.108;2022-08-30T11:19:26;6.15;;;1.20;;
69912;SDS011;57198;52.082;5.108;2022-08-30T11:22:43;5.00;;;1.50;;
69912;SDS011;57198;52.082;5.108;2022-08-30T11:32:56;2.90;;;1.00;;
69912;SDS011;57198;52.082;5.108;2022-08-30T11:41:10;1.87;;;1.10;;
69912;SDS011;57198;52.082;5.108;2022-08-30T11:46:13;2.65;;;1.15;;
69912;SDS011;57198;52.082;5.108;2022-08-30T11:48:41;4.28;;;1.00;;
69912;SDS011;57198;52.082;5.108;2022-08-30T11:53:51;2.87;;;1.00;;
69912;SDS011;57198;52.082;5.108;2022-08-30T11:59:07;4.13;;;1.17;;
69912;SDS011;57198;52.082;5.108;2022-08-30T12:01:39;1.92;;;1.02;;
69912;SDS011;57198;52.082;5.108;2022-08-30T12:06:53;1.90;;;1.03;;
69912;SDS011;57198;52.082;5.108;2022-08-30T12:17:00;5.80;;;1.33;;
69912;SDS011;57198;52.082;5.108;2022-08-30T12:20:17;1.27;;;1.10;;
69912;SDS011;57198;52.082;5.108;2022-08-30T12:22:47;1.10;;;0.80;;
69912;SDS011;57198;52.082;5.108;2022-08-30T12:25:16;2.70;;;1.00;;
69912;SDS011;57198;52.082;5.108;2022-08-30T12:27:47;1.40;;;1.00;;
69912;SDS011;57198;52.082;5.108;2022-08-30T12:30:20;1.88;;;1.20;;
69912;SDS011;57198;52.082;5.108;2022-08-30T12:32:51;2.33;;;0.90;;
69912;SDS011;57198;52.082;5.108;2022-08-30T12:35:25;1.23;;;1.00;;
69912;SDS011;57198;52.082;5.108;2022-08-30T12:37:58;2.53;;;1.23;;
69912;SDS011;57198;52.082;5.108;2022-08-30T12:40:27;1.73;;;1.00;;
69912;SDS011;57198;52.082;5.108;2022-08-30T12:42:58;2.50;;;0.82;;
69912;SDS011;57198;52.082;5.108;2022-08-30T12:45:26;3.17;;;1.40;;
69912;SDS011;57198;52.082;5.108;2022-08-30T12:47:57;1.33;;;0.90;;
69912;SDS011;57198;52.082;5.108;2022-08-30T12:50:36;2.92;;;0.93;;
69912;SDS011;57198;52.082;5.108;2022-08-30T12:55:49;3.45;;;0.90;;
69912;SDS011;57198;52.082;5.108;2022-08-30T12:58:31;1.97;;;1.40;;
69912;SDS011;57198;52.082;5.108;2022-08-30T13:06:50;1.85;;;1.10;;
69912;SDS011;57198;52.082;5.108;2022-08-30T13:09:25;2.58;;;1.15;;
69912;SDS011;57198;52.082;5.108;2022-08-30T13:11:58;1.70;;;0.97;;
69912;SDS011;57198;52.082;5.108;2022-08-30T13:14:40;3.00;;;1.08;;
69912;SDS011;57198;52.082;5.108;2022-08-30T13:19:37;2.88;;;1.58;;
69912;SDS011;57198;52.082;5.108;2022-08-30T13:22:22;2.90;;;1.30;;
69912;SDS011;57198;52.082;5.108;2022-08-30T13:24:52;1.63;;;1.00;;
69912;SDS011;57198;52.082;5.108;2022-08-30T13:27:19;2.25;;;1.13;;
69912;SDS011;57198;52.082;5.108;2022-08-30T13:29:47;4.25;;;1.13;;
69912;SDS011;57198;52.082;5.108;2022-08-30T13:32:15;4.47;;;1.02;;
69912;SDS011;57198;52.082;5.108;2022-08-30T13:34:43;2.05;;;0.88;;
69912;SDS011;57198;52.082;5.108;2022-08-30T13:37:12;5.27;;;1.07;;
69912;SDS011;57198;52.082;5.108;2022-08-30T13:40:00;3.83;;;1.00;;
69912;SDS011;57198;52.082;5.108;2022-08-30T13:42:30;2.95;;;1.10;;
69912;SDS011;57198;52.082;5.108;2022-08-30T13:44:58;3.45;;;0.98;;
69912;SDS011;57198;52.082;5.108;2022-08-30T13:47:25;3.35;;;1.20;;
69912;SDS011;57198;52.082;5.108;2022-08-30T13:50:03;1.20;;;1.10;;
69912;SDS011;57198;52.082;5.108;2022-08-30T13:52:31;5.05;;;1.33;;
69912;SDS011;57198;52.082;5.108;2022-08-30T13:55:00;3.75;;;1.25;;
69912;SDS011;57198;52.082;5.108;2022-08-30T13:57:29;2.05;;;1.08;;
69912;SDS011;57198;52.082;5.108;2022-08-30T14:00:17;1.88;;;1.20;;
69912;SDS011;57198;52.082;5.108;2022-08-30T14:02:47;1.20;;;1.10;;
69912;SDS011;57198;52.082;5.108;2022-08-30T14:05:31;2.33;;;0.95;;
69912;SDS011;57198;52.082;5.108;2022-08-30T14:08:22;1.88;;;1.05;;
69912;SDS011;57198;52.082;5.108;2022-08-30T14:11:10;1.85;;;0.90;;
69912;SDS011;57198;52.082;5.108;2022-08-30T14:13:39;4.78;;;1.40;;
69912;SDS011;57198;52.082;5.108;2022-08-30T14:16:28;1.67;;;0.70;;
69912;SDS011;57198;52.082;5.108;2022-08-30T14:18:57;2.75;;;0.98;;
69912;SDS011;57198;52.082;5.108;2022-08-30T14:21:25;4.43;;;0.73;;
69912;SDS011;57198;52.082;5.108;2022-08-30T14:23:53;1.58;;;0.70;;
69912;SDS011;57198;52.082;5.108;2022-08-30T14:26:23;5.03;;;1.20;;
69912;SDS011;57198;52.082;5.108;2022-08-30T14:28:58;2.40;;;0.97;;
69912;SDS011;57198;52.082;5.108;2022-08-30T14:31:25;2.55;;;0.75;;
69912;SDS011;57198;52.082;5.108;2022-08-30T14:33:54;1.45;;;1.00;;
69912;SDS011;57198;52.082;5.108;2022-08-30T14:36:21;1.30;;;0.80;;
69912;SDS011;57198;52.082;5.108;2022-08-30T14:38:49;1.95;;;1.05;;
69912;SDS011;57198;52.082;5.108;2022-08-30T14:41:17;1.93;;;1.10;;
69912;SDS011;57198;52.082;5.108;2022-08-30T14:43:45;3.72;;;1.00;;
69912;SDS011;57198;52.082;5.108;2022-08-30T14:46:12;3.97;;;1.00;;
69912;SDS011;57198;52.082;5.108;2022-08-30T14:48:39;2.90;;;1.15;;
69912;SDS011;57198;52.082;5.108;2022-08-30T14:51:14;3.35;;;1.10;;
69912;SDS011;57198;52.082;5.108;2022-08-30T14:53:42;2.20;;;1.30;;
69912;SDS011;57198;52.082;5.108;2022-08-30T14:56:11;4.55;;;1.08;;
69912;SDS011;57198;52.082;5.108;2022-08-30T14:58:39;2.70;;;1.10;;
69912;SDS011;57198;52.082;5.108;2022-08-30T15:01:08;3.55;;;1.25;;
69912;SDS011;57198;52.082;5.108;2022-08-30T15:03:38;2.25;;;0.93;;
69912;SDS011;57198;52.082;5.108;2022-08-30T15:06:06;1.97;;;1.20;;
69912;SDS011;57198;52.082;5.108;2022-08-30T15:08:34;2.63;;;0.98;;
69912;SDS011;57198;52.082;5.108;2022-08-30T15:11:06;1.73;;;1.33;;
69912;SDS011;57198;52.082;5.108;2022-08-30T15:13:34;1.20;;;0.80;;
69912;SDS011;57198;52.082;5.108;2022-08-30T15:16:01;2.22;;;1.05;;
69912;SDS011;57198;52.082;5.108;2022-08-30T15:18:29;1.73;;;0.80;;
69912;SDS011;57198;52.082;5.108;2022-08-30T15:20:56;1.63;;;1.00;;
69912;SDS011;57198;52.082;5.108;2022-08-30T15:23:24;1.77;;;1.30;;
69912;SDS011;57198;52.082;5.108;2022-08-30T15:25:52;2.15;;;1.00;;
69912;SDS011;57198;52.082;5.108;2022-08-30T15:28:19;3.13;;;1.58;;
69912;SDS011;57198;52.082;5.108;2022-08-30T15:30:47;2.23;;;1.50;;
69912;SDS011;57198;52.082;5.108;2022-08-30T15:33:15;2.33;;;1.55;;
69912;SDS011;57198;52.082;5.108;2022-08-30T15:35:42;2.33;;;1.20;;
69912;SDS011;57198;52.082;5.108;2022-08-30T15:38:10;1.83;;;1.08;;
69912;SDS011;57198;52.082;5.108;2022-08-30T15:40:37;2.08;;;0.98;;
69912;SDS011;57198;52.082;5.108;2022-08-30T15:43:05;2.13;;;1.20;;
69912;SDS011;57198;52.082;5.108;2022-08-30T15:45:32;5.50;;;1.23;;
69912;SDS011;57198;52.082;5.108;2022-08-30T15:48:00;5.55;;;1.17;;
69912;SDS011;57198;52.082;5.108;2022-08-30T15:50:27;1.50;;;1.08;;
69912;SDS011;57198;52.082;5.108;2022-08-30T15:52:55;6.93;;;1.40;;
69912;SDS011;57198;52.082;5.108;2022-08-30T15:55:22;3.00;;;1.23;;
69912;SDS011;57198;52.082;5.108;2022-08-30T15:57:51;1.15;;;0.80;;
69912;SDS011;57198;52.082;5.108;2022-08-30T16:00:19;2.20;;;0.82;;
69912;SDS011;57198;52.082;5.108;2022-08-30T16:02:48;1.27;;;1.13;;
69912;SDS011;57198;52.082;5.108;2022-08-30T16:05:17;2.58;;;1.10;;
69912;SDS011;57198;52.082;5.108;2022-08-30T16:07:46;4.23;;;1.23;;
69912;SDS011;57198;52.082;5.108;2022-08-30T16:10:15;2.92;;;1.00;;
69912;SDS011;57198;52.082;5.108;2022-08-30T16:12:43;1.67;;;1.05;;
69912;SDS011;57198;52.082;5.108;2022-08-30T16:15:11;1.95;;;1.13;;
69912;SDS011;57198;52.082;5.108;2022-08-30T16:17:38;2.95;;;1.30;;
69912;SDS011;57198;52.082;5.108;2022-08-30T16:20:07;5.33;;;1.50;;
69912;SDS011;57198;52.082;5.108;2022-08-30T16:22:37;2.55;;;1.10;;
69912;SDS011;57198;52.082;5.108;2022-08-30T16:25:11;2.63;;;1.20;;
69912;SDS011;57198;52.082;5.108;2022-08-30T16:27:38;2.88;;;0.82;;